createdAt,value
2017-07-15T00:02:18.773Z,16.80
2017-07-15T00:04:46.916Z,16.80
2017-07-15T00:07:15.086Z,16.70
2017-07-15T00:09:43.214Z,16.70
2017-07-15T00:12:11.454Z,16.70
2017-07-15T00:14:39.914Z,16.70
2017-07-15T00:17:08.057Z,16.70
2017-07-15T00:19:36.169Z,16.70
2017-07-15T00:22:04.514Z,16.80
2017-07-15T00:24:32.642Z,16.80
2017-07-15T00:27:00.747Z,16.80
2017-07-15T00:29:28.881Z,16.80
2017-07-15T00:31:56.982Z,16.80
2017-07-15T00:34:25.220Z,16.80
2017-07-15T00:36:53.311Z,16.80
2017-07-15T00:39:21.445Z,16.80
2017-07-15T00:41:49.566Z,16.90
2017-07-15T00:44:17.665Z,17.00
2017-07-15T00:46:45.903Z,17.00
2017-07-15T00:49:13.997Z,17.00
2017-07-15T00:51:42.173Z,17.00
2017-07-15T00:54:10.274Z,17.00
2017-07-15T00:56:38.407Z,16.90
2017-07-15T00:59:06.520Z,16.80
2017-07-15T01:01:34.613Z,16.80
2017-07-15T01:04:02.757Z,16.70
2017-07-15T01:06:30.937Z,16.80
2017-07-15T01:08:59.035Z,16.60
2017-07-15T01:11:27.133Z,16.50
2017-07-15T01:13:55.266Z,16.50
2017-07-15T01:16:23.378Z,16.50
2017-07-15T01:18:51.507Z,16.50
2017-07-15T01:21:19.624Z,16.50
2017-07-15T01:23:47.725Z,16.50
2017-07-15T01:26:15.982Z,16.50
2017-07-15T01:28:44.076Z,16.50
2017-07-15T01:31:12.223Z,16.50
2017-07-15T01:33:40.325Z,16.40
2017-07-15T01:36:08.409Z,16.50
2017-07-15T01:38:36.546Z,16.30
2017-07-15T01:41:04.641Z,16.30
2017-07-15T01:43:32.738Z,16.30
2017-07-15T01:46:00.970Z,16.20
2017-07-15T01:48:29.086Z,16.10
2017-07-15T01:50:57.203Z,16.20
2017-07-15T01:53:25.351Z,16.10
2017-07-15T01:55:53.442Z,16.10
2017-07-15T01:58:21.534Z,16.10
2017-07-15T02:00:49.782Z,16.10
2017-07-15T02:03:17.894Z,16.10
2017-07-15T02:05:45.991Z,16.20
2017-07-15T02:08:14.120Z,16.10
2017-07-15T02:10:42.207Z,16.10
2017-07-15T02:13:10.342Z,16.10
2017-07-15T02:15:38.432Z,16.10
2017-07-15T02:18:06.537Z,16.10
2017-07-15T02:20:34.768Z,16.10
2017-07-15T02:23:02.869Z,16.10
2017-07-15T02:25:32.203Z,16.10
2017-07-15T02:28:00.304Z,16.10
2017-07-15T02:30:28.448Z,16.10
2017-07-15T02:32:56.542Z,16.20
2017-07-15T02:35:24.784Z,16.20
2017-07-15T02:37:52.890Z,16.10
2017-07-15T02:40:20.985Z,16.00
2017-07-15T02:42:49.149Z,16.10
2017-07-15T02:45:17.248Z,16.00
2017-07-15T02:47:45.685Z,16.00
2017-07-15T02:50:13.805Z,16.00
2017-07-15T02:52:42.047Z,15.90
2017-07-15T02:55:10.160Z,15.90
2017-07-15T02:57:38.257Z,15.90
2017-07-15T03:00:06.385Z,15.90
2017-07-15T03:02:34.514Z,16.00
2017-07-15T03:05:02.613Z,15.90
2017-07-15T03:07:30.725Z,16.00
2017-07-15T03:09:58.954Z,16.10
2017-07-15T03:12:27.057Z,16.10
2017-07-15T03:14:55.214Z,16.20
2017-07-15T03:17:23.317Z,16.20
2017-07-15T03:19:51.573Z,16.20
2017-07-15T03:22:19.672Z,16.30
2017-07-15T03:24:47.777Z,16.30
2017-07-15T03:27:16.008Z,16.30
2017-07-15T03:29:44.102Z,16.30
2017-07-15T03:32:12.248Z,16.30
2017-07-15T03:34:40.337Z,16.40
2017-07-15T03:37:08.435Z,16.40
2017-07-15T03:39:36.683Z,16.40
2017-07-15T03:42:04.764Z,16.30
2017-07-15T03:44:32.888Z,16.30
2017-07-15T03:47:00.993Z,16.30
2017-07-15T03:49:29.123Z,16.30
2017-07-15T03:51:57.269Z,16.20
2017-07-15T03:54:25.375Z,16.30
2017-07-15T03:56:53.473Z,16.20
2017-07-15T03:59:21.698Z,16.30
2017-07-15T04:01:49.792Z,16.30
2017-07-15T04:04:17.925Z,16.30
2017-07-15T04:06:46.055Z,16.40
2017-07-15T04:09:14.194Z,16.40
2017-07-15T04:11:42.293Z,16.40
2017-07-15T04:14:11.337Z,16.40
2017-07-15T04:16:40.210Z,16.50
2017-07-15T04:19:08.306Z,16.50
2017-07-15T04:21:36.401Z,16.60
2017-07-15T04:24:04.524Z,16.60
2017-07-15T04:26:32.655Z,16.60
2017-07-15T04:29:00.759Z,16.60
2017-07-15T04:31:28.859Z,16.60
2017-07-15T04:33:57.085Z,16.70
2017-07-15T04:36:25.186Z,16.70
2017-07-15T04:38:53.321Z,16.70
2017-07-15T04:41:21.432Z,16.80
2017-07-15T04:43:49.527Z,16.80
2017-07-15T04:46:17.661Z,16.70
2017-07-15T04:48:45.774Z,16.70
2017-07-15T04:51:14.030Z,16.70
2017-07-15T04:53:42.134Z,16.70
2017-07-15T04:56:10.233Z,16.60
2017-07-15T04:58:38.375Z,16.50
2017-07-15T05:01:06.477Z,16.60
2017-07-15T05:03:34.602Z,16.70
2017-07-15T05:06:02.699Z,16.60
2017-07-15T05:08:30.793Z,16.50
2017-07-15T05:10:59.012Z,16.50
2017-07-15T05:13:27.109Z,16.50
2017-07-15T05:15:55.234Z,16.50
2017-07-15T05:18:23.333Z,16.40
2017-07-15T05:20:51.430Z,16.20
2017-07-15T05:23:19.667Z,16.20
2017-07-15T05:25:47.749Z,16.10
2017-07-15T05:28:15.885Z,16.00
2017-07-15T05:30:43.982Z,16.00
2017-07-15T05:33:12.101Z,15.90
2017-07-15T05:35:40.200Z,15.90
2017-07-15T05:38:08.446Z,15.90
2017-07-15T05:40:36.537Z,16.00
2017-07-15T05:43:04.697Z,15.90
2017-07-15T05:45:32.804Z,15.90
2017-07-15T05:48:00.905Z,15.80
2017-07-15T05:50:29.046Z,15.80
2017-07-15T05:52:57.142Z,15.80
2017-07-15T05:55:25.249Z,15.90
2017-07-15T05:57:53.372Z,15.90
2017-07-15T06:00:21.472Z,15.80
2017-07-15T06:02:49.566Z,15.80
2017-07-15T06:05:17.805Z,15.80
2017-07-15T06:07:45.898Z,15.90
2017-07-15T06:10:15.223Z,15.80
2017-07-15T06:12:43.320Z,15.80
2017-07-15T06:15:11.482Z,15.70
2017-07-15T06:17:39.574Z,15.70
2017-07-15T06:20:07.676Z,15.70
2017-07-15T06:22:35.823Z,15.80
2017-07-15T06:25:03.914Z,15.80
2017-07-15T06:27:32.014Z,15.80
2017-07-15T06:30:00.522Z,15.80
2017-07-15T06:32:28.625Z,15.90
2017-07-15T06:34:56.848Z,15.90
2017-07-15T06:37:24.942Z,15.90
2017-07-15T06:39:53.073Z,15.90
2017-07-15T06:42:22.132Z,16.00
2017-07-15T06:44:50.445Z,16.10
2017-07-15T06:47:18.573Z,16.10
2017-07-15T06:49:46.676Z,16.20
2017-07-15T06:52:14.789Z,16.30
2017-07-15T06:54:42.998Z,16.40
2017-07-15T06:57:11.102Z,16.50
2017-07-15T06:59:39.229Z,16.60
2017-07-15T07:02:07.321Z,16.60
2017-07-15T07:04:35.414Z,16.70
2017-07-15T07:07:03.541Z,16.80
2017-07-15T07:09:31.637Z,16.80
2017-07-15T07:11:59.893Z,16.80
2017-07-15T07:14:28.029Z,16.90
2017-07-15T07:16:56.166Z,16.80
2017-07-15T07:19:24.280Z,16.80
2017-07-15T07:21:52.373Z,16.90
2017-07-15T07:24:20.500Z,16.80
2017-07-15T07:26:48.589Z,16.80
2017-07-15T07:29:16.845Z,16.80
2017-07-15T07:31:44.949Z,16.90
2017-07-15T07:34:13.047Z,16.90
2017-07-15T07:36:41.182Z,17.00
2017-07-15T07:39:09.278Z,16.90
2017-07-15T07:41:37.411Z,17.00
2017-07-15T07:44:05.570Z,17.00
2017-07-15T07:46:33.673Z,17.10
2017-07-15T07:49:01.765Z,17.10
2017-07-15T07:51:29.889Z,17.10
2017-07-15T07:53:57.989Z,17.20
2017-07-15T07:56:26.112Z,17.20
2017-07-15T07:58:54.201Z,17.20
2017-07-15T08:01:22.461Z,17.30
2017-07-15T08:03:50.557Z,17.40
2017-07-15T08:06:18.646Z,17.30
2017-07-15T08:08:46.780Z,17.30
2017-07-15T08:11:14.873Z,17.40
2017-07-15T08:13:42.980Z,17.40
2017-07-15T08:16:12.453Z,17.50
2017-07-15T08:18:40.549Z,17.60
2017-07-15T08:21:08.698Z,17.60
2017-07-15T08:23:36.834Z,17.90
2017-07-15T08:26:04.928Z,18.10
2017-07-15T08:28:33.041Z,18.20
2017-07-15T08:31:01.129Z,18.10
2017-07-15T08:33:29.370Z,18.00
2017-07-15T08:35:57.477Z,18.00
2017-07-15T08:38:25.593Z,18.10
2017-07-15T08:40:53.833Z,18.10
2017-07-15T08:43:21.937Z,18.10
2017-07-15T08:45:50.033Z,18.20
2017-07-15T08:48:18.154Z,18.30
2017-07-15T08:50:46.273Z,18.40
2017-07-15T08:53:14.402Z,18.50
2017-07-15T08:55:44.901Z,18.50
2017-07-15T08:58:13.876Z,18.50
2017-07-15T09:00:42.107Z,18.50
2017-07-15T09:03:10.249Z,18.50
2017-07-15T09:05:38.447Z,18.60
2017-07-15T09:08:06.650Z,18.60
2017-07-15T09:10:34.796Z,18.60
2017-07-15T09:13:03.065Z,18.70
2017-07-15T09:15:31.247Z,18.70
2017-07-15T09:17:59.426Z,18.70
2017-07-15T09:20:27.614Z,18.80
2017-07-15T09:22:56.638Z,18.90
2017-07-15T09:25:24.862Z,19.00
2017-07-15T09:27:53.248Z,19.20
2017-07-15T09:30:21.603Z,19.30
2017-07-15T09:32:49.698Z,19.40
2017-07-15T09:35:17.886Z,19.40
2017-07-15T09:37:46.059Z,19.40
2017-07-15T09:40:15.165Z,19.30
2017-07-15T09:42:43.283Z,19.30
2017-07-15T09:45:11.465Z,19.50
2017-07-15T09:47:39.755Z,19.60
2017-07-15T09:50:09.026Z,19.80
2017-07-15T09:52:37.288Z,19.80
2017-07-15T09:55:05.418Z,19.90
2017-07-15T09:57:33.693Z,20.00
2017-07-15T10:00:02.073Z,20.10
2017-07-15T10:02:30.654Z,20.20
2017-07-15T10:04:59.686Z,20.30
2017-07-15T10:07:27.790Z,20.40
2017-07-15T10:09:56.008Z,20.50
2017-07-15T10:12:24.491Z,20.60
2017-07-15T10:14:53.481Z,20.70
2017-07-15T10:17:22.824Z,20.70
2017-07-15T10:19:50.944Z,20.60
2017-07-15T10:22:19.045Z,20.50
2017-07-15T10:24:47.293Z,20.40
2017-07-15T10:27:15.429Z,20.30
2017-07-15T10:29:43.512Z,20.20
2017-07-15T10:32:11.639Z,20.10
2017-07-15T10:34:39.872Z,19.90
2017-07-15T10:37:07.977Z,20.00
2017-07-15T10:39:36.233Z,20.10
2017-07-15T10:42:04.340Z,20.20
2017-07-15T10:44:32.438Z,20.30
2017-07-15T10:47:00.564Z,20.30
2017-07-15T10:49:28.661Z,20.20
2017-07-15T10:51:56.765Z,20.20
2017-07-15T10:54:24.898Z,20.30
2017-07-15T10:56:53.014Z,20.40
2017-07-15T10:59:21.118Z,20.60
2017-07-15T11:01:49.357Z,20.70
2017-07-15T11:04:17.486Z,20.90
2017-07-15T11:06:45.606Z,21.10
2017-07-15T11:09:13.762Z,21.30
2017-07-15T11:11:43.193Z,21.20
2017-07-15T11:14:11.298Z,21.10
2017-07-15T11:16:39.437Z,21.00
2017-07-15T11:19:07.565Z,21.00
2017-07-15T11:21:35.653Z,21.10
2017-07-15T11:24:03.779Z,21.30
2017-07-15T11:26:31.886Z,21.40
2017-07-15T11:29:00.051Z,21.60
2017-07-15T11:31:28.150Z,21.70
2017-07-15T11:33:56.279Z,21.70
2017-07-15T11:36:24.518Z,21.90
2017-07-15T11:38:52.639Z,22.00
2017-07-15T11:41:20.779Z,22.20
2017-07-15T11:43:48.879Z,22.20
2017-07-15T11:46:17.106Z,22.30
2017-07-15T11:48:45.217Z,22.40
2017-07-15T11:51:13.321Z,22.30
2017-07-15T11:53:41.498Z,22.30
2017-07-15T11:56:09.593Z,22.50
2017-07-15T11:58:37.712Z,22.60
2017-07-15T12:01:05.841Z,22.80
2017-07-15T12:03:33.978Z,22.90
2017-07-15T12:06:02.071Z,23.00
2017-07-15T12:08:30.193Z,23.10
2017-07-15T12:10:58.429Z,23.30
2017-07-15T12:13:26.526Z,23.30
2017-07-15T12:15:54.658Z,23.40
2017-07-15T12:18:22.793Z,23.50
2017-07-15T12:20:50.908Z,23.50
2017-07-15T12:23:19.033Z,23.50
2017-07-15T12:25:47.158Z,23.60
2017-07-15T12:28:15.386Z,23.70
2017-07-15T12:30:43.486Z,23.70
2017-07-15T12:33:11.594Z,23.80
2017-07-15T12:35:39.732Z,23.90
2017-07-15T12:38:07.847Z,23.90
2017-07-15T12:40:35.965Z,23.90
2017-07-15T12:43:04.113Z,24.10
2017-07-15T12:45:32.369Z,24.40
2017-07-15T12:48:00.465Z,24.40
2017-07-15T12:50:28.597Z,24.30
2017-07-15T12:52:56.738Z,24.00
2017-07-15T12:55:24.837Z,23.70
2017-07-15T12:57:52.978Z,23.60
2017-07-15T13:00:21.070Z,23.70
2017-07-15T13:02:49.232Z,23.90
2017-07-15T13:05:17.333Z,24.10
2017-07-15T13:07:45.479Z,24.50
2017-07-15T13:10:13.566Z,24.70
2017-07-15T13:12:41.674Z,24.90
2017-07-15T13:15:09.826Z,24.90
2017-07-15T13:17:37.940Z,24.80
2017-07-15T13:20:06.037Z,24.70
2017-07-15T13:22:34.209Z,24.80
2017-07-15T13:25:02.327Z,25.00
2017-07-15T13:27:30.431Z,25.10
2017-07-15T13:29:58.584Z,25.00
2017-07-15T13:32:26.695Z,25.00
2017-07-15T13:34:54.831Z,25.20
2017-07-15T13:37:22.965Z,25.50
2017-07-15T13:39:51.074Z,25.70
2017-07-15T13:42:19.181Z,25.70
2017-07-15T13:44:47.434Z,25.50
2017-07-15T13:47:15.537Z,25.40
2017-07-15T13:49:43.695Z,25.60
2017-07-15T13:54:41.156Z,25.10
2017-07-15T13:57:09.401Z,24.70
2017-07-15T13:59:37.533Z,24.40
2017-07-15T14:02:05.630Z,24.20
2017-07-15T14:04:33.758Z,24.00
2017-07-15T14:07:01.865Z,23.80
2017-07-15T14:09:29.957Z,23.80
2017-07-15T14:11:58.089Z,24.00
2017-07-15T14:14:26.190Z,24.00
2017-07-15T14:16:54.425Z,24.00
2017-07-15T14:19:22.539Z,24.00
2017-07-15T14:21:50.681Z,24.00
2017-07-15T14:24:18.797Z,23.90
2017-07-15T14:26:46.906Z,24.00
2017-07-15T14:29:15.027Z,24.30
2017-07-15T14:31:43.133Z,24.50
2017-07-15T14:34:11.382Z,24.70
2017-07-15T14:36:39.473Z,24.80
2017-07-15T14:39:07.618Z,24.60
2017-07-15T14:41:35.712Z,24.50
2017-07-15T14:44:03.825Z,24.30
2017-07-15T14:46:31.971Z,24.20
2017-07-15T14:49:00.081Z,24.00
2017-07-15T14:51:28.337Z,24.10
2017-07-15T14:53:56.467Z,24.00
2017-07-15T14:56:24.577Z,23.80
2017-07-15T14:58:52.698Z,24.00
2017-07-15T15:01:20.822Z,24.00
2017-07-15T15:03:49.089Z,23.90
2017-07-15T15:06:17.217Z,23.90
2017-07-15T15:08:45.327Z,24.10
2017-07-15T15:11:13.461Z,24.30
2017-07-15T15:13:41.555Z,24.30
2017-07-15T15:16:09.683Z,24.30
2017-07-15T15:18:37.817Z,24.30
2017-07-15T15:21:05.930Z,24.40
2017-07-15T15:23:34.023Z,24.30
2017-07-15T15:26:02.245Z,24.30
2017-07-15T15:28:30.356Z,24.20
2017-07-15T15:30:58.466Z,24.20
2017-07-15T15:33:26.592Z,24.30
2017-07-15T15:35:54.766Z,24.50
2017-07-15T15:38:22.873Z,24.50
2017-07-15T15:40:50.969Z,24.40
2017-07-15T15:43:19.112Z,24.30
2017-07-15T15:45:47.207Z,24.20
2017-07-15T15:48:15.309Z,24.00
2017-07-15T15:50:43.490Z,23.90
2017-07-15T15:53:12.484Z,23.80
2017-07-15T15:55:40.589Z,23.80
2017-07-15T15:58:08.839Z,23.70
2017-07-15T16:00:36.947Z,23.60
2017-07-15T16:03:05.073Z,23.60
2017-07-15T16:05:33.204Z,23.50
2017-07-15T16:08:01.321Z,23.50
2017-07-15T16:10:29.422Z,23.50
2017-07-15T16:12:57.663Z,23.60
2017-07-15T16:15:25.755Z,23.60
2017-07-15T16:17:54.079Z,23.60
2017-07-15T16:20:22.201Z,23.50
2017-07-15T16:22:50.292Z,23.50
2017-07-15T16:25:18.389Z,23.20
2017-07-15T16:27:46.540Z,23.00
2017-07-15T16:30:14.646Z,22.90
2017-07-15T16:32:42.753Z,22.70
2017-07-15T16:35:11.019Z,22.60
2017-07-15T16:37:39.145Z,22.50
2017-07-15T16:40:07.241Z,22.50
2017-07-15T16:42:35.363Z,22.50
2017-07-15T16:45:03.468Z,22.50
2017-07-15T16:47:31.577Z,22.40
2017-07-15T16:49:59.873Z,22.40
2017-07-15T16:52:27.990Z,22.40
2017-07-15T16:54:56.134Z,22.40
2017-07-15T16:57:24.234Z,22.50
2017-07-15T16:59:52.321Z,22.50
2017-07-15T17:02:20.560Z,22.50
2017-07-15T17:04:48.658Z,22.50
2017-07-15T17:07:16.793Z,22.60
2017-07-15T17:09:44.912Z,22.70
2017-07-15T17:12:13.006Z,22.60
2017-07-15T17:14:41.168Z,22.50
2017-07-15T17:17:09.274Z,22.50
2017-07-15T17:19:37.382Z,22.40
2017-07-15T17:22:05.636Z,22.30
2017-07-15T17:24:33.782Z,22.20
2017-07-15T17:27:01.891Z,22.10
2017-07-15T17:29:29.993Z,22.00
2017-07-15T17:31:58.169Z,21.90
2017-07-15T17:34:26.281Z,21.80
2017-07-15T17:36:54.378Z,21.70
2017-07-15T17:39:22.620Z,21.60
2017-07-15T17:41:50.727Z,21.60
2017-07-15T17:44:18.871Z,21.60
2017-07-15T17:46:46.978Z,21.60
2017-07-15T17:49:15.081Z,21.60
2017-07-15T17:51:43.200Z,21.60
2017-07-15T17:54:11.301Z,21.70
2017-07-15T17:56:39.557Z,21.60
2017-07-15T17:59:07.653Z,21.60
2017-07-15T18:01:35.785Z,21.50
2017-07-15T18:04:03.891Z,21.50
2017-07-15T18:06:32.019Z,21.50
2017-07-15T18:09:00.133Z,21.50
2017-07-15T18:11:28.397Z,21.60
2017-07-15T18:13:56.506Z,21.50
2017-07-15T18:16:24.641Z,21.60
2017-07-15T18:18:52.889Z,21.60
2017-07-15T18:21:20.994Z,21.60
2017-07-15T18:23:49.133Z,21.50
2017-07-15T18:26:17.245Z,21.60
2017-07-15T18:28:45.387Z,21.60
2017-07-15T18:31:13.493Z,21.50
2017-07-15T18:33:41.747Z,21.50
2017-07-15T18:36:09.906Z,21.40
2017-07-15T18:38:38.025Z,21.40
2017-07-15T18:41:06.120Z,21.40
2017-07-15T18:43:34.277Z,21.40
2017-07-15T18:46:02.378Z,21.40
2017-07-15T18:48:30.494Z,21.50
2017-07-15T18:50:58.740Z,21.50
2017-07-15T18:53:26.837Z,21.50
2017-07-15T18:55:55.003Z,21.50
2017-07-15T18:58:23.111Z,21.50
2017-07-15T19:00:51.218Z,21.50
2017-07-15T19:03:19.362Z,21.60
2017-07-15T19:05:47.469Z,21.50
2017-07-15T19:08:15.590Z,21.50
2017-07-15T19:10:43.836Z,21.50
2017-07-15T19:13:11.974Z,21.50
2017-07-15T19:15:40.083Z,21.50
2017-07-15T19:18:08.570Z,21.40
2017-07-15T19:20:36.701Z,21.40
2017-07-15T19:23:04.799Z,21.30
2017-07-15T19:25:32.908Z,21.30
2017-07-15T19:28:01.061Z,21.30
2017-07-15T19:30:29.227Z,21.20
2017-07-15T19:32:57.337Z,21.10
2017-07-15T19:35:25.454Z,21.10
2017-07-15T19:37:53.602Z,21.10
2017-07-15T19:40:21.699Z,21.10
2017-07-15T19:42:49.962Z,21.00
2017-07-15T19:45:18.072Z,20.90
2017-07-15T19:47:46.206Z,20.80
2017-07-15T19:50:14.330Z,20.80
2017-07-15T19:52:42.457Z,20.70
2017-07-15T19:55:10.579Z,20.70
2017-07-15T19:57:38.671Z,20.60
2017-07-15T20:00:06.916Z,20.60
2017-07-15T20:02:35.013Z,20.50
2017-07-15T20:05:03.181Z,20.40
2017-07-15T20:07:31.305Z,20.30
2017-07-15T20:09:59.394Z,20.20
2017-07-15T20:12:27.542Z,20.20
2017-07-15T20:14:55.646Z,20.10
2017-07-15T20:17:23.738Z,20.00
2017-07-15T20:19:51.980Z,20.00
2017-07-15T20:22:20.073Z,19.90
2017-07-15T20:24:48.207Z,19.80
2017-07-15T20:27:16.288Z,19.70
2017-07-15T20:29:44.424Z,19.70
2017-07-15T20:32:12.518Z,19.70
2017-07-15T20:34:40.634Z,19.60
2017-07-15T20:37:10.101Z,19.50
2017-07-15T20:39:38.233Z,19.40
2017-07-15T20:42:06.345Z,19.40
2017-07-15T20:44:34.481Z,19.30
2017-07-15T20:47:02.614Z,19.20
2017-07-15T20:49:30.755Z,19.20
2017-07-15T20:51:59.006Z,19.20
2017-07-15T20:54:27.114Z,19.10
2017-07-15T20:56:55.269Z,19.10
2017-07-15T20:59:23.382Z,19.00
2017-07-15T21:01:51.474Z,18.90
2017-07-15T21:04:19.616Z,18.90
2017-07-15T21:06:47.718Z,18.90
2017-07-15T21:09:15.817Z,18.80
2017-07-15T21:11:44.051Z,18.70
2017-07-15T21:14:12.198Z,18.70
2017-07-15T21:16:40.309Z,18.70
2017-07-15T21:19:08.443Z,18.70
2017-07-15T21:21:36.546Z,18.70
2017-07-15T21:24:04.649Z,18.60
2017-07-15T21:26:32.916Z,18.60
2017-07-15T21:29:01.031Z,18.50
2017-07-15T21:31:29.125Z,18.50
2017-07-15T21:33:57.294Z,18.40
2017-07-15T21:36:25.418Z,18.40
2017-07-15T21:38:53.529Z,18.30
2017-07-15T21:41:21.787Z,18.30
2017-07-15T21:43:49.867Z,18.30
2017-07-15T21:46:18.009Z,18.20
2017-07-15T21:48:46.102Z,18.20
2017-07-15T21:51:14.217Z,18.20
2017-07-15T21:53:42.338Z,18.10
2017-07-15T21:56:10.454Z,18.10
2017-07-15T21:58:38.699Z,18.00
2017-07-15T22:01:06.787Z,18.00
2017-07-15T22:03:34.931Z,18.00
2017-07-15T22:06:03.017Z,18.00
2017-07-15T22:08:31.114Z,18.00
2017-07-15T22:10:59.254Z,17.90
2017-07-15T22:13:27.510Z,17.80
2017-07-15T22:15:55.614Z,17.80
2017-07-15T22:18:23.750Z,17.80
2017-07-15T22:20:51.877Z,17.70
2017-07-15T22:23:19.985Z,17.60
2017-07-15T22:25:48.126Z,17.70
2017-07-15T22:28:16.227Z,17.70
2017-07-15T22:30:44.325Z,17.50
2017-07-15T22:33:12.578Z,17.50
2017-07-15T22:35:40.687Z,17.50
2017-07-15T22:38:08.808Z,17.50
2017-07-15T22:40:36.933Z,17.40
2017-07-15T22:43:05.065Z,17.40
2017-07-15T22:45:33.301Z,17.40
2017-07-15T22:48:01.418Z,17.30
2017-07-15T22:50:29.573Z,17.30
2017-07-15T22:52:57.656Z,17.30
2017-07-15T22:55:25.768Z,17.30
2017-07-15T22:57:53.905Z,17.20
2017-07-15T23:00:22.023Z,17.20
2017-07-15T23:02:51.474Z,17.10
2017-07-15T23:05:19.572Z,17.10
2017-07-15T23:07:47.678Z,17.10
2017-07-15T23:10:15.813Z,17.10
2017-07-15T23:12:43.913Z,17.10
2017-07-15T23:15:12.065Z,17.00
2017-07-15T23:17:40.207Z,16.90
2017-07-15T23:20:08.441Z,16.90
2017-07-15T23:22:36.540Z,16.90
2017-07-15T23:25:04.675Z,16.90
2017-07-15T23:27:32.779Z,16.80
2017-07-15T23:30:00.905Z,16.80
2017-07-15T23:32:29.031Z,16.80
2017-07-15T23:34:57.116Z,16.70
2017-07-15T23:37:25.362Z,16.70
2017-07-15T23:39:53.493Z,16.70
2017-07-15T23:42:21.593Z,16.70
2017-07-15T23:44:49.749Z,16.60
2017-07-15T23:47:17.855Z,16.60
2017-07-15T23:49:45.954Z,16.60
2017-07-15T23:52:14.082Z,16.60
2017-07-15T23:54:42.322Z,16.50
2017-07-15T23:57:10.434Z,16.50
2017-07-15T23:59:38.532Z,16.50
